createdAt,value
2019-03-05T00:02:19.506Z,95.30
2019-03-05T00:05:38.525Z,95.20
2019-03-05T00:08:47.504Z,95.30
2019-03-05T00:11:56.152Z,95.30
2019-03-05T00:15:05.038Z,95.20
2019-03-05T00:18:17.040Z,95.20
2019-03-05T00:21:25.506Z,95.30
2019-03-05T00:25:03.467Z,95.40
2019-03-05T00:28:37.333Z,95.30
2019-03-05T00:31:46.219Z,95.40
2019-03-05T00:35:41.085Z,95.40
2019-03-05T00:39:31.679Z,95.40
2019-03-05T00:43:29.973Z,95.50
2019-03-05T00:47:40.883Z,95.30
2019-03-05T00:51:39.993Z,95.20
2019-03-05T00:55:50.038Z,95.10
2019-03-05T01:00:38.067Z,95.10
2019-03-05T01:04:21.556Z,95.10
2019-03-05T01:07:40.622Z,95.10
2019-03-05T01:10:49.201Z,95.00
2019-03-05T01:13:57.939Z,95.00
2019-03-05T01:17:06.668Z,94.90
2019-03-05T01:20:15.473Z,94.90
2019-03-05T01:23:24.683Z,94.90
2019-03-05T01:26:33.455Z,94.90
2019-03-05T01:29:42.035Z,95.00
2019-03-05T01:32:54.944Z,94.90
2019-03-05T01:36:08.407Z,95.00
2019-03-05T01:39:35.109Z,94.80
2019-03-05T01:42:43.881Z,94.90
2019-03-05T01:45:53.959Z,95.00
2019-03-05T01:49:02.683Z,94.90
2019-03-05T01:52:11.260Z,94.90
2019-03-05T01:55:30.238Z,95.00
2019-03-05T01:58:39.022Z,95.00
2019-03-05T02:01:48.732Z,95.20
2019-03-05T02:04:57.339Z,98.00
2019-03-05T02:08:06.013Z,98.30
2019-03-05T02:11:24.762Z,99.80
2019-03-05T02:14:32.945Z,99.90
2019-03-05T02:17:43.183Z,99.90
2019-03-05T02:20:51.717Z,99.90
2019-03-05T02:24:55.372Z,99.90
2019-03-05T02:29:05.485Z,99.90
2019-03-05T02:32:58.972Z,99.90
2019-03-05T02:36:32.911Z,99.90
2019-03-05T02:40:51.773Z,99.90
2019-03-05T02:44:46.603Z,99.90
2019-03-05T02:48:41.411Z,99.90
2019-03-05T02:52:20.856Z,99.90
2019-03-05T02:56:26.832Z,99.90
2019-03-05T02:59:45.746Z,99.90
2019-03-05T03:03:00.965Z,99.90
2019-03-05T03:06:34.201Z,99.90
2019-03-05T03:10:29.200Z,99.90
2019-03-05T03:13:37.926Z,99.90
2019-03-05T03:16:46.736Z,99.90
2019-03-05T03:20:06.018Z,99.90
2019-03-05T03:23:24.783Z,99.90
2019-03-05T03:26:33.345Z,99.90
2019-03-05T03:29:42.039Z,99.90
2019-03-05T03:32:50.843Z,99.90
2019-03-05T03:35:59.637Z,99.90
2019-03-05T03:39:08.832Z,99.90
2019-03-05T03:42:17.418Z,99.80
2019-03-05T03:45:27.338Z,99.90
2019-03-05T03:48:35.947Z,99.90
2019-03-05T03:51:44.553Z,99.90
2019-03-05T03:55:03.426Z,99.90
2019-03-05T03:58:12.109Z,99.90
2019-03-05T04:01:20.737Z,99.90
2019-03-05T04:04:29.235Z,99.90
2019-03-05T04:07:38.282Z,99.90
2019-03-05T04:10:48.101Z,99.90
2019-03-05T04:13:59.478Z,99.90
2019-03-05T04:17:07.214Z,99.90
2019-03-05T04:20:32.775Z,99.90
2019-03-05T04:23:53.839Z,99.70
2019-03-05T04:27:02.638Z,99.60
2019-03-05T04:30:13.661Z,99.40
2019-03-05T04:33:21.945Z,99.20
2019-03-05T04:36:30.544Z,99.10
2019-03-05T04:39:39.264Z,98.80
2019-03-05T04:43:26.165Z,98.50
2019-03-05T04:46:42.324Z,98.50
2019-03-05T04:50:03.755Z,98.60
2019-03-05T04:53:12.394Z,98.60
2019-03-05T04:56:24.161Z,98.50
2019-03-05T04:59:33.205Z,98.50
2019-03-05T05:02:44.183Z,98.40
2019-03-05T05:05:54.149Z,98.50
2019-03-05T05:09:16.783Z,98.30
2019-03-05T05:12:36.912Z,98.30
2019-03-05T05:16:01.372Z,98.30
2019-03-05T05:19:08.954Z,98.40
2019-03-05T05:22:17.709Z,98.30
2019-03-05T05:25:29.293Z,98.60
2019-03-05T05:28:38.501Z,98.70
2019-03-05T05:31:51.323Z,98.80
2019-03-05T05:35:00.026Z,99.00
2019-03-05T05:38:10.279Z,99.10
2019-03-05T05:41:23.303Z,98.80
2019-03-05T05:44:35.111Z,98.70
2019-03-05T05:47:46.108Z,98.60
2019-03-05T05:50:54.093Z,98.70
2019-03-05T05:54:04.067Z,98.60
2019-03-05T05:57:13.516Z,98.70
2019-03-05T06:00:27.697Z,98.30
2019-03-05T06:03:37.976Z,98.40
2019-03-05T06:06:46.490Z,98.20
2019-03-05T06:09:55.486Z,98.20
2019-03-05T06:13:20.042Z,98.30
2019-03-05T06:16:33.847Z,97.90
2019-03-05T06:19:46.155Z,98.00
2019-03-05T06:22:55.251Z,98.00
2019-03-05T06:26:08.664Z,97.90
2019-03-05T06:29:17.414Z,97.90
2019-03-05T06:32:28.449Z,98.00
2019-03-05T06:35:37.472Z,97.80
2019-03-05T06:38:56.868Z,97.90
2019-03-05T06:42:16.280Z,97.80
2019-03-05T06:45:35.583Z,98.00
2019-03-05T06:48:55.171Z,98.10
2019-03-05T06:52:14.296Z,98.10
2019-03-05T06:55:33.923Z,97.90
2019-03-05T06:58:55.039Z,97.90
2019-03-05T07:02:03.584Z,97.70
2019-03-05T07:06:15.851Z,97.60
2019-03-05T07:10:21.092Z,97.40
2019-03-05T07:13:40.334Z,97.20
2019-03-05T07:17:01.445Z,96.70
2019-03-05T07:21:09.099Z,96.80
2019-03-05T07:24:47.784Z,96.70
2019-03-05T07:28:00.377Z,96.30
2019-03-05T07:31:08.843Z,96.20
2019-03-05T07:34:29.846Z,96.00
2019-03-05T07:37:54.108Z,96.10
2019-03-05T07:41:02.600Z,95.90
2019-03-05T07:44:11.137Z,95.70
2019-03-05T07:47:19.649Z,96.20
2019-03-05T07:50:28.122Z,95.80
2019-03-05T07:53:46.921Z,95.30
2019-03-05T07:56:55.406Z,94.20
2019-03-05T08:00:05.534Z,94.00
2019-03-05T08:03:14.157Z,92.60
2019-03-05T08:06:22.637Z,91.80
2019-03-05T08:09:41.566Z,91.30
2019-03-05T08:13:37.921Z,91.10
2019-03-05T08:16:46.450Z,91.00
2019-03-05T08:19:55.113Z,91.70
2019-03-05T08:23:03.559Z,91.30
2019-03-05T08:26:22.434Z,91.50
2019-03-05T08:29:30.959Z,91.50
2019-03-05T08:32:39.417Z,91.20
2019-03-05T08:35:47.912Z,90.90
2019-03-05T08:38:56.611Z,91.10
2019-03-05T08:42:15.448Z,90.30
2019-03-05T08:45:29.357Z,89.90
2019-03-05T08:48:34.623Z,89.50
2019-03-05T08:51:43.223Z,89.90
2019-03-05T08:54:51.877Z,90.10
2019-03-05T08:58:00.450Z,90.60
2019-03-05T09:01:09.663Z,91.20
2019-03-05T09:04:18.148Z,90.90
2019-03-05T09:07:26.730Z,90.90
2019-03-05T09:10:35.333Z,91.30
2019-03-05T09:13:43.879Z,91.20
2019-03-05T09:17:02.830Z,91.40
2019-03-05T09:20:14.055Z,91.40
2019-03-05T09:23:22.504Z,91.20
2019-03-05T09:26:50.727Z,91.30
2019-03-05T09:29:51.754Z,91.30
2019-03-05T09:33:00.325Z,91.30
2019-03-05T09:36:09.418Z,91.20
2019-03-05T09:39:18.165Z,91.40
2019-03-05T09:42:26.744Z,92.70
2019-03-05T09:45:36.805Z,93.10
2019-03-05T09:48:45.016Z,93.50
2019-03-05T09:52:04.009Z,93.90
2019-03-05T09:55:17.023Z,94.70
2019-03-05T09:58:25.601Z,94.80
2019-03-05T10:01:34.351Z,95.60
2019-03-05T10:04:42.925Z,95.50
2019-03-05T10:08:01.823Z,96.40
2019-03-05T10:11:10.395Z,97.30
2019-03-05T10:14:18.927Z,98.30
2019-03-05T10:17:37.689Z,99.10
2019-03-05T10:20:38.170Z,99.90
2019-03-05T10:23:47.977Z,99.90
2019-03-05T10:27:06.905Z,99.90
2019-03-05T10:30:25.146Z,99.60
2019-03-05T10:33:32.462Z,99.70
2019-03-05T10:36:41.007Z,99.60
2019-03-05T10:39:49.558Z,99.90
2019-03-05T10:43:07.992Z,99.60
2019-03-05T10:46:10.379Z,99.20
2019-03-05T10:49:19.137Z,99.00
2019-03-05T10:52:27.747Z,99.60
2019-03-05T10:55:36.620Z,99.40
2019-03-05T10:58:45.099Z,99.90
2019-03-05T11:01:53.800Z,99.90
2019-03-05T11:05:13.097Z,99.90
2019-03-05T11:08:32.468Z,99.50
2019-03-05T11:11:41.105Z,99.10
2019-03-05T11:14:49.561Z,99.30
2019-03-05T11:17:58.339Z,99.80
2019-03-05T11:21:07.620Z,99.60
2019-03-05T11:24:16.149Z,99.80
2019-03-05T11:27:24.702Z,99.90
2019-03-05T11:30:36.331Z,99.90
2019-03-05T11:33:45.312Z,99.90
2019-03-05T11:36:53.914Z,99.70
2019-03-05T11:40:02.567Z,99.90
2019-03-05T11:43:21.433Z,99.60
2019-03-05T11:46:30.055Z,99.70
2019-03-05T11:49:38.667Z,99.60
2019-03-05T11:52:47.269Z,99.70
2019-03-05T11:55:55.816Z,99.80
2019-03-05T11:59:04.483Z,98.70
2019-03-05T12:02:21.456Z,98.70
2019-03-05T12:05:23.393Z,99.30
2019-03-05T12:08:42.264Z,98.40
2019-03-05T12:11:50.728Z,98.50
2019-03-05T12:14:59.302Z,98.30
2019-03-05T12:18:09.292Z,98.30
2019-03-05T12:21:28.464Z,98.10
2019-03-05T12:24:47.498Z,97.70
2019-03-05T12:27:55.978Z,98.10
2019-03-05T12:31:04.710Z,97.70
2019-03-05T12:34:13.355Z,97.20
2019-03-05T12:37:21.820Z,97.80
2019-03-05T12:40:30.528Z,97.90
2019-03-05T12:43:39.125Z,98.30
2019-03-05T12:46:57.945Z,97.60
2019-03-05T12:50:09.550Z,97.30
2019-03-05T12:53:19.230Z,97.50
2019-03-05T12:56:38.136Z,97.50
2019-03-05T12:59:46.731Z,97.10
2019-03-05T13:02:55.716Z,96.70
2019-03-05T13:06:04.379Z,97.00
2019-03-05T13:09:20.122Z,96.90
2019-03-05T13:12:40.252Z,96.90
2019-03-05T13:15:49.040Z,96.30
2019-03-05T13:18:58.438Z,96.40
2019-03-05T13:22:07.152Z,95.80
2019-03-05T13:25:28.647Z,95.30
2019-03-05T13:28:40.122Z,95.00
2019-03-05T13:31:48.124Z,95.10
2019-03-05T13:34:56.719Z,95.40
2019-03-05T13:38:07.472Z,95.40
2019-03-05T13:41:16.783Z,95.50
2019-03-05T13:44:36.802Z,95.00
2019-03-05T13:47:53.683Z,95.00
2019-03-05T13:51:23.138Z,95.00
2019-03-05T13:55:01.122Z,95.10
2019-03-05T13:58:59.550Z,94.10
2019-03-05T14:02:09.829Z,93.30
2019-03-05T14:06:04.516Z,92.80
2019-03-05T14:09:14.700Z,92.90
2019-03-05T14:12:33.637Z,92.10
2019-03-05T14:15:43.855Z,92.40
2019-03-05T14:18:52.788Z,91.80
2019-03-05T14:22:01.605Z,92.30
2019-03-05T14:25:12.519Z,92.90
2019-03-05T14:28:31.422Z,92.90
2019-03-05T14:31:40.128Z,92.70
2019-03-05T14:35:22.278Z,93.00
2019-03-05T14:38:32.180Z,92.90
2019-03-05T14:41:40.878Z,93.30
2019-03-05T14:44:49.546Z,93.50
2019-03-05T14:48:08.709Z,93.30
2019-03-05T14:51:17.266Z,93.40
2019-03-05T14:54:26.981Z,93.20
2019-03-05T14:57:35.628Z,93.60
2019-03-05T15:00:44.431Z,93.30
2019-03-05T15:03:53.065Z,93.10
2019-03-05T15:07:04.564Z,93.20
2019-03-05T15:10:22.307Z,93.30
2019-03-05T15:13:30.994Z,93.50
2019-03-05T15:16:41.108Z,92.60
2019-03-05T15:19:49.753Z,92.10
2019-03-05T15:22:58.436Z,91.70
2019-03-05T15:26:07.051Z,91.60
2019-03-05T15:29:15.629Z,91.60
2019-03-05T15:32:34.477Z,91.70
2019-03-05T15:35:44.677Z,91.80
2019-03-05T15:39:04.860Z,92.00
2019-03-05T15:42:13.631Z,92.20
2019-03-05T15:45:22.337Z,92.50
2019-03-05T15:48:41.205Z,92.60
2019-03-05T15:51:49.825Z,92.70
2019-03-05T15:54:57.463Z,92.80
2019-03-05T15:58:16.571Z,93.00
2019-03-05T16:01:25.270Z,93.10
2019-03-05T16:04:44.698Z,93.00
2019-03-05T16:07:53.384Z,92.90
2019-03-05T16:11:01.877Z,93.00
2019-03-05T16:14:10.463Z,92.70
2019-03-05T16:17:19.072Z,91.90
2019-03-05T16:20:29.605Z,92.00
2019-03-05T16:23:48.066Z,91.80
2019-03-05T16:26:57.820Z,91.30
2019-03-05T16:30:09.708Z,90.60
2019-03-05T16:33:25.713Z,90.50
2019-03-05T16:36:56.254Z,90.50
2019-03-05T16:40:16.753Z,90.60
2019-03-05T16:43:40.560Z,90.90
2019-03-05T16:47:18.876Z,90.70
2019-03-05T16:50:52.209Z,90.90
2019-03-05T16:54:12.182Z,90.80
2019-03-05T16:57:33.050Z,91.00
2019-03-05T17:01:11.102Z,91.20
2019-03-05T17:04:26.595Z,91.00
2019-03-05T17:08:05.208Z,91.10
2019-03-05T17:11:31.267Z,91.00
2019-03-05T17:14:39.544Z,91.10
2019-03-05T17:17:48.230Z,91.60
2019-03-05T17:20:58.010Z,91.30
2019-03-05T17:24:16.974Z,91.40
2019-03-05T17:27:25.489Z,91.60
2019-03-05T17:30:34.468Z,91.50
2019-03-05T17:33:43.164Z,91.50
2019-03-05T17:36:51.990Z,91.70
2019-03-05T17:40:00.686Z,91.80
2019-03-05T17:43:09.562Z,91.70
2019-03-05T17:46:30.090Z,91.70
2019-03-05T17:49:40.265Z,91.80
2019-03-05T17:52:47.253Z,91.80
2019-03-05T17:55:55.947Z,92.00
2019-03-05T17:59:14.762Z,92.00
2019-03-05T18:02:23.379Z,91.80
2019-03-05T18:05:32.628Z,92.00
2019-03-05T18:08:52.211Z,92.10
2019-03-05T18:12:00.675Z,92.10
2019-03-05T18:15:15.081Z,92.40
2019-03-05T18:18:24.286Z,92.50
2019-03-05T18:21:32.870Z,92.50
2019-03-05T18:24:41.487Z,92.60
2019-03-05T18:27:50.425Z,92.90
2019-03-05T18:30:59.204Z,93.10
2019-03-05T18:34:07.981Z,93.30
2019-03-05T18:37:16.625Z,93.50
2019-03-05T18:40:26.034Z,93.60
2019-03-05T18:43:36.747Z,93.70
2019-03-05T18:46:55.921Z,93.90
2019-03-05T18:50:04.785Z,94.00
2019-03-05T18:53:13.659Z,94.10
2019-03-05T18:56:22.703Z,94.10
2019-03-05T18:59:31.717Z,94.20
2019-03-05T19:02:40.326Z,94.40
2019-03-05T19:05:59.275Z,94.40
2019-03-05T19:09:08.968Z,94.50
2019-03-05T19:12:17.474Z,94.90
2019-03-05T19:15:36.298Z,95.10
2019-03-05T19:18:44.979Z,95.30
2019-03-05T19:21:53.591Z,95.20
2019-03-05T19:25:02.169Z,95.10
2019-03-05T19:28:11.480Z,95.40
2019-03-05T19:31:20.250Z,95.20
2019-03-05T19:34:29.119Z,95.00
2019-03-05T19:37:37.757Z,94.70
2019-03-05T19:40:46.409Z,94.60
2019-03-05T19:43:54.993Z,95.00
2019-03-05T19:47:05.128Z,94.50
2019-03-05T19:50:17.450Z,94.60
2019-03-05T19:53:26.131Z,94.50
2019-03-05T19:56:34.939Z,94.60
2019-03-05T19:59:43.761Z,94.40
2019-03-05T20:02:52.483Z,94.20
2019-03-05T20:06:01.415Z,94.30
2019-03-05T20:09:13.688Z,94.20
2019-03-05T20:12:22.304Z,94.10
2019-03-05T20:15:30.866Z,94.20
2019-03-05T20:18:39.606Z,94.10
2019-03-05T20:21:48.634Z,94.10
2019-03-05T20:24:57.255Z,94.10
2019-03-05T20:28:06.053Z,94.20
2019-03-05T20:31:14.711Z,94.00
2019-03-05T20:34:23.478Z,94.00
2019-03-05T20:37:32.084Z,94.00
2019-03-05T20:40:50.809Z,94.10
2019-03-05T20:43:59.317Z,93.90
2019-03-05T20:47:08.100Z,94.10
2019-03-05T20:50:16.881Z,94.20
2019-03-05T20:53:25.665Z,94.20
2019-03-05T20:56:34.303Z,94.20
2019-03-05T20:59:42.796Z,94.00
2019-03-05T21:02:51.480Z,94.10
2019-03-05T21:06:10.425Z,94.20
2019-03-05T21:09:29.583Z,94.20
2019-03-05T21:12:38.057Z,94.10
2019-03-05T21:15:46.563Z,94.20
2019-03-05T21:18:55.116Z,94.20
2019-03-05T21:22:03.631Z,94.10
2019-03-05T21:25:22.568Z,94.20
2019-03-05T21:28:31.235Z,94.20
2019-03-05T21:31:39.737Z,94.20
2019-03-05T21:34:48.416Z,94.10
2019-03-05T21:37:58.617Z,94.20
2019-03-05T21:41:07.214Z,94.20
2019-03-05T21:44:15.859Z,94.20
2019-03-05T21:47:34.659Z,94.10
2019-03-05T21:50:43.258Z,94.00
2019-03-05T21:53:51.851Z,94.00
2019-03-05T21:57:00.539Z,94.20
2019-03-05T22:00:16.228Z,94.10
2019-03-05T22:03:24.782Z,93.90
2019-03-05T22:06:33.379Z,93.80
2019-03-05T22:09:42.291Z,94.00
2019-03-05T22:12:50.763Z,94.10
2019-03-05T22:16:00.109Z,93.90
2019-03-05T22:19:09.031Z,93.80
2019-03-05T22:22:17.552Z,93.80
2019-03-05T22:25:26.163Z,93.90
2019-03-05T22:28:34.699Z,94.00
2019-03-05T22:31:43.517Z,94.00
2019-03-05T22:34:52.165Z,94.10
2019-03-05T22:38:00.978Z,94.10
2019-03-05T22:41:09.634Z,94.20
2019-03-05T22:44:28.454Z,94.20
2019-03-05T22:47:36.983Z,93.90
2019-03-05T22:50:45.756Z,94.20
2019-03-05T22:53:54.356Z,94.20
2019-03-05T22:57:03.159Z,94.30
2019-03-05T23:00:32.014Z,94.30
2019-03-05T23:04:01.711Z,94.50
2019-03-05T23:07:10.928Z,94.60
2019-03-05T23:10:20.729Z,94.70
2019-03-05T23:13:29.975Z,94.70
2019-03-05T23:16:38.733Z,94.80
2019-03-05T23:19:49.172Z,94.80
2019-03-05T23:22:57.529Z,95.00
2019-03-05T23:26:06.328Z,95.00
2019-03-05T23:29:15.546Z,95.10
2019-03-05T23:32:24.633Z,95.10
2019-03-05T23:35:33.832Z,95.20
2019-03-05T23:38:52.550Z,95.10
2019-03-05T23:42:01.269Z,95.20
2019-03-05T23:45:11.651Z,95.40
2019-03-05T23:48:20.737Z,95.50
2019-03-05T23:51:29.303Z,95.50
2019-03-05T23:54:39.753Z,95.70
2019-03-05T23:57:48.054Z,95.90
